sensor_id;sensor_type;location;lat;lon;timestamp;temperature;humidity
51908;DHT22;39320;53.214;6.556;2022-08-19T00:00:25;21.10;99.90
51908;DHT22;39320;53.214;6.556;2022-08-19T00:02:53;21.10;99.90
51908;DHT22;39320;53.214;6.556;2022-08-19T00:05:19;21.10;99.90
51908;DHT22;39320;53.214;6.556;2022-08-19T00:07:45;21.10;99.90
51908;DHT22;39320;53.214;6.556;2022-08-19T00:10:13;21.10;99.90
51908;DHT22;39320;53.214;6.556;2022-08-19T00:12:40;21.10;99.90
51908;DHT22;39320;53.214;6.556;2022-08-19T00:15:08;21.00;99.90
51908;DHT22;39320;53.214;6.556;2022-08-19T00:17:46;21.00;99.90
51908;DHT22;39320;53.214;6.556;2022-08-19T00:20:16;21.00;99.90
51908;DHT22;39320;53.214;6.556;2022-08-19T00:22:43;21.00;99.90
51908;DHT22;39320;53.214;6.556;2022-08-19T00:25:09;20.90;99.90
51908;DHT22;39320;53.214;6.556;2022-08-19T00:27:35;20.90;99.90
51908;DHT22;39320;53.214;6.556;2022-08-19T00:30:02;20.80;99.90
51908;DHT22;39320;53.214;6.556;2022-08-19T00:32:29;20.80;99.90
51908;DHT22;39320;53.214;6.556;2022-08-19T00:34:54;20.80;99.90
51908;DHT22;39320;53.214;6.556;2022-08-19T00:37:24;20.80;99.90
51908;DHT22;39320;53.214;6.556;2022-08-19T00:39:52;20.80;99.90
51908;DHT22;39320;53.214;6.556;2022-08-19T00:42:19;20.80;99.90
51908;DHT22;39320;53.214;6.556;2022-08-19T00:44:45;20.80;99.90
51908;DHT22;39320;53.214;6.556;2022-08-19T00:47:11;20.70;99.90
51908;DHT22;39320;53.214;6.556;2022-08-19T00:49:43;20.70;99.90
51908;DHT22;39320;53.214;6.556;2022-08-19T00:52:16;20.70;99.90
51908;DHT22;39320;53.214;6.556;2022-08-19T00:54:46;20.70;99.90
51908;DHT22;39320;53.214;6.556;2022-08-19T00:57:17;20.50;99.90
51908;DHT22;39320;53.214;6.556;2022-08-19T00:59:46;20.50;99.90
51908;DHT22;39320;53.214;6.556;2022-08-19T01:02:15;20.50;99.90
51908;DHT22;39320;53.214;6.556;2022-08-19T01:04:42;20.40;99.90
51908;DHT22;39320;53.214;6.556;2022-08-19T01:07:10;20.40;99.90
51908;DHT22;39320;53.214;6.556;2022-08-19T01:09:40;20.40;99.90
51908;DHT22;39320;53.214;6.556;2022-08-19T01:12:06;20.30;99.90
51908;DHT22;39320;53.214;6.556;2022-08-19T01:14:33;20.20;99.90
51908;DHT22;39320;53.214;6.556;2022-08-19T01:16:59;20.30;99.90
51908;DHT22;39320;53.214;6.556;2022-08-19T01:19:33;20.20;99.90
51908;DHT22;39320;53.214;6.556;2022-08-19T01:24:50;20.20;99.90
51908;DHT22;39320;53.214;6.556;2022-08-19T01:27:16;20.20;99.90
51908;DHT22;39320;53.214;6.556;2022-08-19T01:29:44;20.20;99.90
51908;DHT22;39320;53.214;6.556;2022-08-19T01:32:16;20.10;99.90
51908;DHT22;39320;53.214;6.556;2022-08-19T01:34:42;20.10;99.90
51908;DHT22;39320;53.214;6.556;2022-08-19T01:37:14;20.10;99.90
51908;DHT22;39320;53.214;6.556;2022-08-19T01:39:41;20.10;99.90
51908;DHT22;39320;53.214;6.556;2022-08-19T01:42:08;20.00;99.90
51908;DHT22;39320;53.214;6.556;2022-08-19T01:44:37;19.90;99.90
51908;DHT22;39320;53.214;6.556;2022-08-19T01:47:04;19.90;99.90
51908;DHT22;39320;53.214;6.556;2022-08-19T01:49:30;19.90;99.90
51908;DHT22;39320;53.214;6.556;2022-08-19T01:51:56;19.90;99.90
51908;DHT22;39320;53.214;6.556;2022-08-19T01:54:24;19.80;99.90
51908;DHT22;39320;53.214;6.556;2022-08-19T01:56:51;19.80;99.90
51908;DHT22;39320;53.214;6.556;2022-08-19T01:59:21;19.80;99.90
51908;DHT22;39320;53.214;6.556;2022-08-19T02:01:48;19.80;99.90
51908;DHT22;39320;53.214;6.556;2022-08-19T02:04:14;19.60;99.90
51908;DHT22;39320;53.214;6.556;2022-08-19T02:06:41;19.70;99.90
51908;DHT22;39320;53.214;6.556;2022-08-19T02:09:08;19.70;99.90
51908;DHT22;39320;53.214;6.556;2022-08-19T02:11:36;19.70;99.90
51908;DHT22;39320;53.214;6.556;2022-08-19T02:14:04;19.70;99.90
51908;DHT22;39320;53.214;6.556;2022-08-19T02:16:31;19.70;99.90
51908;DHT22;39320;53.214;6.556;2022-08-19T02:18:58;19.70;99.90
51908;DHT22;39320;53.214;6.556;2022-08-19T02:21:28;19.70;99.90
51908;DHT22;39320;53.214;6.556;2022-08-19T02:23:55;19.70;99.90
51908;DHT22;39320;53.214;6.556;2022-08-19T02:26:22;19.60;99.90
51908;DHT22;39320;53.214;6.556;2022-08-19T02:28:49;19.60;99.90
51908;DHT22;39320;53.214;6.556;2022-08-19T02:31:19;19.60;99.90
51908;DHT22;39320;53.214;6.556;2022-08-19T02:33:46;19.60;99.90
51908;DHT22;39320;53.214;6.556;2022-08-19T02:36:13;19.60;99.90
51908;DHT22;39320;53.214;6.556;2022-08-19T02:38:40;19.50;99.90
51908;DHT22;39320;53.214;6.556;2022-08-19T02:41:23;19.50;99.90
51908;DHT22;39320;53.214;6.556;2022-08-19T02:43:49;19.50;99.90
51908;DHT22;39320;53.214;6.556;2022-08-19T02:46:17;19.40;99.90
51908;DHT22;39320;53.214;6.556;2022-08-19T02:48:51;19.40;99.90
51908;DHT22;39320;53.214;6.556;2022-08-19T02:51:20;19.30;99.90
51908;DHT22;39320;53.214;6.556;2022-08-19T02:53:46;19.30;99.90
51908;DHT22;39320;53.214;6.556;2022-08-19T02:56:12;19.30;99.90
51908;DHT22;39320;53.214;6.556;2022-08-19T02:58:38;19.30;99.90
51908;DHT22;39320;53.214;6.556;2022-08-19T03:01:04;19.30;99.90
51908;DHT22;39320;53.214;6.556;2022-08-19T03:03:30;19.20;99.90
51908;DHT22;39320;53.214;6.556;2022-08-19T03:06:10;19.10;99.90
51908;DHT22;39320;53.214;6.556;2022-08-19T03:08:37;19.20;99.90
51908;DHT22;39320;53.214;6.556;2022-08-19T03:11:04;19.10;99.90
51908;DHT22;39320;53.214;6.556;2022-08-19T03:13:30;19.00;99.90
51908;DHT22;39320;53.214;6.556;2022-08-19T03:15:56;19.10;99.90
51908;DHT22;39320;53.214;6.556;2022-08-19T03:18:22;19.10;99.90
51908;DHT22;39320;53.214;6.556;2022-08-19T03:20:51;19.10;99.90
51908;DHT22;39320;53.214;6.556;2022-08-19T03:23:18;19.10;99.90
51908;DHT22;39320;53.214;6.556;2022-08-19T03:25:49;19.20;99.90
51908;DHT22;39320;53.214;6.556;2022-08-19T03:28:16;19.20;99.90
51908;DHT22;39320;53.214;6.556;2022-08-19T03:30:44;19.20;99.90
51908;DHT22;39320;53.214;6.556;2022-08-19T03:33:21;19.20;99.90
51908;DHT22;39320;53.214;6.556;2022-08-19T03:35:47;19.30;99.90
51908;DHT22;39320;53.214;6.556;2022-08-19T03:38:13;19.30;99.90
51908;DHT22;39320;53.214;6.556;2022-08-19T03:40:39;19.20;99.90
51908;DHT22;39320;53.214;6.556;2022-08-19T03:43:05;19.60;99.90
51908;DHT22;39320;53.214;6.556;2022-08-19T03:45:31;19.30;99.90
51908;DHT22;39320;53.214;6.556;2022-08-19T03:47:57;19.30;99.90
51908;DHT22;39320;53.214;6.556;2022-08-19T03:50:23;19.30;99.90
51908;DHT22;39320;53.214;6.556;2022-08-19T03:52:50;19.20;99.90
51908;DHT22;39320;53.214;6.556;2022-08-19T03:55:17;19.20;99.90
51908;DHT22;39320;53.214;6.556;2022-08-19T03:57:43;19.20;99.90
51908;DHT22;39320;53.214;6.556;2022-08-19T04:00:12;19.20;99.90
51908;DHT22;39320;53.214;6.556;2022-08-19T04:02:37;19.20;99.90
51908;DHT22;39320;53.214;6.556;2022-08-19T04:05:03;19.20;99.90
51908;DHT22;39320;53.214;6.556;2022-08-19T04:07:30;19.20;99.90
51908;DHT22;39320;53.214;6.556;2022-08-19T04:09:56;19.20;99.90
51908;DHT22;39320;53.214;6.556;2022-08-19T04:12:22;19.20;99.90
51908;DHT22;39320;53.214;6.556;2022-08-19T04:14:48;19.20;99.90
51908;DHT22;39320;53.214;6.556;2022-08-19T04:17:14;19.20;99.90
51908;DHT22;39320;53.214;6.556;2022-08-19T04:19:40;19.20;99.90
51908;DHT22;39320;53.214;6.556;2022-08-19T04:22:07;19.20;99.90
51908;DHT22;39320;53.214;6.556;2022-08-19T04:24:35;19.20;99.90
51908;DHT22;39320;53.214;6.556;2022-08-19T04:27:02;19.20;99.90
51908;DHT22;39320;53.214;6.556;2022-08-19T04:29:28;19.20;99.90
51908;DHT22;39320;53.214;6.556;2022-08-19T04:31:55;19.20;99.90
51908;DHT22;39320;53.214;6.556;2022-08-19T04:34:24;19.20;99.90
51908;DHT22;39320;53.214;6.556;2022-08-19T04:36:52;19.20;99.90
51908;DHT22;39320;53.214;6.556;2022-08-19T04:39:22;19.20;99.90
51908;DHT22;39320;53.214;6.556;2022-08-19T04:41:48;19.20;99.90
51908;DHT22;39320;53.214;6.556;2022-08-19T04:44:35;19.20;99.90
51908;DHT22;39320;53.214;6.556;2022-08-19T04:47:02;19.20;99.90
51908;DHT22;39320;53.214;6.556;2022-08-19T04:49:31;19.10;99.90
51908;DHT22;39320;53.214;6.556;2022-08-19T04:51:56;19.10;99.90
51908;DHT22;39320;53.214;6.556;2022-08-19T04:54:24;19.10;99.90
51908;DHT22;39320;53.214;6.556;2022-08-19T04:56:51;19.10;99.90
51908;DHT22;39320;53.214;6.556;2022-08-19T04:59:18;19.10;99.90
51908;DHT22;39320;53.214;6.556;2022-08-19T05:01:45;19.00;99.90
51908;DHT22;39320;53.214;6.556;2022-08-19T05:04:18;19.10;99.90
51908;DHT22;39320;53.214;6.556;2022-08-19T05:06:46;19.00;99.90
51908;DHT22;39320;53.214;6.556;2022-08-19T05:09:15;19.00;99.90
51908;DHT22;39320;53.214;6.556;2022-08-19T05:11:41;19.00;99.90
51908;DHT22;39320;53.214;6.556;2022-08-19T05:14:07;19.10;99.90
51908;DHT22;39320;53.214;6.556;2022-08-19T05:16:34;19.10;99.90
51908;DHT22;39320;53.214;6.556;2022-08-19T05:18:59;19.00;99.90
51908;DHT22;39320;53.214;6.556;2022-08-19T05:21:44;19.00;99.90
51908;DHT22;39320;53.214;6.556;2022-08-19T05:24:31;19.00;99.90
51908;DHT22;39320;53.214;6.556;2022-08-19T05:27:00;19.00;99.90
51908;DHT22;39320;53.214;6.556;2022-08-19T05:29:28;19.00;99.90
51908;DHT22;39320;53.214;6.556;2022-08-19T05:31:55;19.10;99.90
51908;DHT22;39320;53.214;6.556;2022-08-19T05:34:22;19.00;99.90
51908;DHT22;39320;53.214;6.556;2022-08-19T05:36:54;19.00;99.90
51908;DHT22;39320;53.214;6.556;2022-08-19T05:39:25;19.00;99.90
51908;DHT22;39320;53.214;6.556;2022-08-19T05:42:11;19.00;99.90
51908;DHT22;39320;53.214;6.556;2022-08-19T05:44:40;19.00;99.90
51908;DHT22;39320;53.214;6.556;2022-08-19T05:47:10;18.90;99.90
51908;DHT22;39320;53.214;6.556;2022-08-19T05:49:37;18.90;99.90
51908;DHT22;39320;53.214;6.556;2022-08-19T05:52:06;18.90;99.90
51908;DHT22;39320;53.214;6.556;2022-08-19T05:54:33;19.00;99.90
51908;DHT22;39320;53.214;6.556;2022-08-19T05:57:00;19.10;99.90
51908;DHT22;39320;53.214;6.556;2022-08-19T05:59:26;19.20;99.90
51908;DHT22;39320;53.214;6.556;2022-08-19T06:01:53;19.20;99.90
51908;DHT22;39320;53.214;6.556;2022-08-19T06:04:22;19.20;99.90
51908;DHT22;39320;53.214;6.556;2022-08-19T06:06:50;19.20;99.90
51908;DHT22;39320;53.214;6.556;2022-08-19T06:09:17;19.20;99.90
51908;DHT22;39320;53.214;6.556;2022-08-19T06:11:46;19.20;99.90
51908;DHT22;39320;53.214;6.556;2022-08-19T06:14:15;19.20;99.90
51908;DHT22;39320;53.214;6.556;2022-08-19T06:16:42;19.10;99.90
51908;DHT22;39320;53.214;6.556;2022-08-19T06:19:12;19.00;99.90
51908;DHT22;39320;53.214;6.556;2022-08-19T06:21:40;19.10;99.90
51908;DHT22;39320;53.214;6.556;2022-08-19T06:24:10;19.10;99.90
51908;DHT22;39320;53.214;6.556;2022-08-19T06:26:38;19.10;99.90
51908;DHT22;39320;53.214;6.556;2022-08-19T06:29:07;19.10;99.90
51908;DHT22;39320;53.214;6.556;2022-08-19T06:31:35;19.20;99.90
51908;DHT22;39320;53.214;6.556;2022-08-19T06:34:03;19.20;99.90
51908;DHT22;39320;53.214;6.556;2022-08-19T06:36:38;19.30;99.90
51908;DHT22;39320;53.214;6.556;2022-08-19T06:39:08;19.30;99.90
51908;DHT22;39320;53.214;6.556;2022-08-19T06:41:39;19.40;99.90
51908;DHT22;39320;53.214;6.556;2022-08-19T06:44:06;19.40;99.90
51908;DHT22;39320;53.214;6.556;2022-08-19T06:46:32;19.40;99.90
51908;DHT22;39320;53.214;6.556;2022-08-19T06:48:58;19.40;99.90
51908;DHT22;39320;53.214;6.556;2022-08-19T06:51:26;19.40;99.90
51908;DHT22;39320;53.214;6.556;2022-08-19T06:53:54;19.50;99.90
51908;DHT22;39320;53.214;6.556;2022-08-19T06:56:24;19.50;99.90
51908;DHT22;39320;53.214;6.556;2022-08-19T06:58:51;19.50;99.90
51908;DHT22;39320;53.214;6.556;2022-08-19T07:01:19;19.60;99.90
51908;DHT22;39320;53.214;6.556;2022-08-19T07:03:45;19.70;99.90
51908;DHT22;39320;53.214;6.556;2022-08-19T07:06:14;19.70;99.90
51908;DHT22;39320;53.214;6.556;2022-08-19T07:08:41;19.80;99.90
51908;DHT22;39320;53.214;6.556;2022-08-19T07:11:10;19.80;99.90
51908;DHT22;39320;53.214;6.556;2022-08-19T07:13:37;19.90;99.90
51908;DHT22;39320;53.214;6.556;2022-08-19T07:16:07;19.90;99.90
51908;DHT22;39320;53.214;6.556;2022-08-19T07:18:33;19.90;99.90
51908;DHT22;39320;53.214;6.556;2022-08-19T07:21:14;20.00;99.90
51908;DHT22;39320;53.214;6.556;2022-08-19T07:23:41;20.00;99.90
51908;DHT22;39320;53.214;6.556;2022-08-19T07:26:11;20.00;99.90
51908;DHT22;39320;53.214;6.556;2022-08-19T07:28:37;20.10;99.90
51908;DHT22;39320;53.214;6.556;2022-08-19T07:31:09;20.10;99.90
51908;DHT22;39320;53.214;6.556;2022-08-19T07:33:35;20.20;99.90
51908;DHT22;39320;53.214;6.556;2022-08-19T07:36:06;20.30;99.90
51908;DHT22;39320;53.214;6.556;2022-08-19T07:38:33;20.40;99.90
51908;DHT22;39320;53.214;6.556;2022-08-19T07:41:00;20.40;99.90
51908;DHT22;39320;53.214;6.556;2022-08-19T07:43:27;20.40;99.90
51908;DHT22;39320;53.214;6.556;2022-08-19T07:45:54;20.50;99.90
51908;DHT22;39320;53.214;6.556;2022-08-19T07:48:26;20.60;99.90
51908;DHT22;39320;53.214;6.556;2022-08-19T07:50:58;20.60;99.90
51908;DHT22;39320;53.214;6.556;2022-08-19T07:53:28;20.70;99.90
51908;DHT22;39320;53.214;6.556;2022-08-19T07:55:54;20.70;99.90
51908;DHT22;39320;53.214;6.556;2022-08-19T07:58:22;20.80;99.90
51908;DHT22;39320;53.214;6.556;2022-08-19T08:00:49;20.90;99.90
51908;DHT22;39320;53.214;6.556;2022-08-19T08:03:17;20.90;99.90
51908;DHT22;39320;53.214;6.556;2022-08-19T08:05:44;21.00;99.90
51908;DHT22;39320;53.214;6.556;2022-08-19T08:08:29;21.00;99.90
51908;DHT22;39320;53.214;6.556;2022-08-19T08:11:14;21.10;99.90
51908;DHT22;39320;53.214;6.556;2022-08-19T08:13:40;21.20;99.90
51908;DHT22;39320;53.214;6.556;2022-08-19T08:16:06;21.20;99.90
51908;DHT22;39320;53.214;6.556;2022-08-19T08:18:33;21.20;99.90
51908;DHT22;39320;53.214;6.556;2022-08-19T08:20:59;21.30;99.90
51908;DHT22;39320;53.214;6.556;2022-08-19T08:23:25;21.30;99.90
51908;DHT22;39320;53.214;6.556;2022-08-19T08:25:54;21.30;99.90
51908;DHT22;39320;53.214;6.556;2022-08-19T08:28:21;21.40;99.90
51908;DHT22;39320;53.214;6.556;2022-08-19T08:30:47;21.40;99.90
51908;DHT22;39320;53.214;6.556;2022-08-19T08:33:20;21.40;99.90
51908;DHT22;39320;53.214;6.556;2022-08-19T08:35:47;21.50;99.90
51908;DHT22;39320;53.214;6.556;2022-08-19T08:38:13;21.50;99.90
51908;DHT22;39320;53.214;6.556;2022-08-19T08:40:49;21.60;99.90
51908;DHT22;39320;53.214;6.556;2022-08-19T08:43:27;21.60;99.90
51908;DHT22;39320;53.214;6.556;2022-08-19T08:46:04;21.60;99.90
51908;DHT22;39320;53.214;6.556;2022-08-19T08:48:52;21.60;99.90
51908;DHT22;39320;53.214;6.556;2022-08-19T08:51:24;21.60;99.90
51908;DHT22;39320;53.214;6.556;2022-08-19T08:53:52;21.70;99.90
51908;DHT22;39320;53.214;6.556;2022-08-19T08:56:19;21.60;99.90
51908;DHT22;39320;53.214;6.556;2022-08-19T09:01:25;21.60;99.90
51908;DHT22;39320;53.214;6.556;2022-08-19T09:03:52;21.60;99.90
51908;DHT22;39320;53.214;6.556;2022-08-19T09:06:44;21.60;99.90
51908;DHT22;39320;53.214;6.556;2022-08-19T09:11:56;21.70;99.90
51908;DHT22;39320;53.214;6.556;2022-08-19T09:17:26;21.80;99.90
51908;DHT22;39320;53.214;6.556;2022-08-19T09:20:01;21.80;99.90
51908;DHT22;39320;53.214;6.556;2022-08-19T09:22:34;21.80;99.90
51908;DHT22;39320;53.214;6.556;2022-08-19T09:25:01;21.80;99.90
51908;DHT22;39320;53.214;6.556;2022-08-19T09:27:28;21.80;99.90
51908;DHT22;39320;53.214;6.556;2022-08-19T09:29:54;21.80;99.90
51908;DHT22;39320;53.214;6.556;2022-08-19T09:32:21;21.90;99.90
51908;DHT22;39320;53.214;6.556;2022-08-19T09:34:47;21.90;99.90
51908;DHT22;39320;53.214;6.556;2022-08-19T09:37:14;21.90;99.90
51908;DHT22;39320;53.214;6.556;2022-08-19T09:39:40;22.00;99.90
51908;DHT22;39320;53.214;6.556;2022-08-19T09:42:08;22.00;99.90
51908;DHT22;39320;53.214;6.556;2022-08-19T09:44:40;22.00;99.90
51908;DHT22;39320;53.214;6.556;2022-08-19T09:47:06;22.10;99.90
51908;DHT22;39320;53.214;6.556;2022-08-19T09:49:33;22.10;99.90
51908;DHT22;39320;53.214;6.556;2022-08-19T09:51:59;22.10;99.90
51908;DHT22;39320;53.214;6.556;2022-08-19T09:54:25;22.10;99.90
51908;DHT22;39320;53.214;6.556;2022-08-19T09:56:52;22.10;99.90
51908;DHT22;39320;53.214;6.556;2022-08-19T09:59:17;22.10;99.90
51908;DHT22;39320;53.214;6.556;2022-08-19T10:01:43;22.30;99.90
51908;DHT22;39320;53.214;6.556;2022-08-19T10:04:09;22.20;99.90
51908;DHT22;39320;53.214;6.556;2022-08-19T10:06:37;22.20;99.90
51908;DHT22;39320;53.214;6.556;2022-08-19T10:09:06;22.30;99.90
51908;DHT22;39320;53.214;6.556;2022-08-19T10:11:36;22.30;99.90
51908;DHT22;39320;53.214;6.556;2022-08-19T10:14:03;22.30;99.90
51908;DHT22;39320;53.214;6.556;2022-08-19T10:16:31;22.40;99.90
51908;DHT22;39320;53.214;6.556;2022-08-19T10:18:58;22.30;99.90
51908;DHT22;39320;53.214;6.556;2022-08-19T10:21:27;22.40;99.90
51908;DHT22;39320;53.214;6.556;2022-08-19T10:23:56;22.40;99.90
51908;DHT22;39320;53.214;6.556;2022-08-19T10:26:26;22.40;99.90
51908;DHT22;39320;53.214;6.556;2022-08-19T10:28:52;22.40;99.90
51908;DHT22;39320;53.214;6.556;2022-08-19T10:31:27;22.50;99.90
51908;DHT22;39320;53.214;6.556;2022-08-19T10:33:54;22.50;99.90
51908;DHT22;39320;53.214;6.556;2022-08-19T10:36:26;22.50;99.90
51908;DHT22;39320;53.214;6.556;2022-08-19T10:38:54;22.60;99.90
51908;DHT22;39320;53.214;6.556;2022-08-19T10:41:24;22.60;99.90
51908;DHT22;39320;53.214;6.556;2022-08-19T10:43:51;22.60;99.90
51908;DHT22;39320;53.214;6.556;2022-08-19T10:46:21;22.60;99.90
51908;DHT22;39320;53.214;6.556;2022-08-19T10:48:48;22.50;99.90
51908;DHT22;39320;53.214;6.556;2022-08-19T10:51:15;22.60;99.90
51908;DHT22;39320;53.214;6.556;2022-08-19T10:54:00;22.60;99.90
51908;DHT22;39320;53.214;6.556;2022-08-19T10:56:27;22.70;99.90
51908;DHT22;39320;53.214;6.556;2022-08-19T10:59:12;22.70;99.90
51908;DHT22;39320;53.214;6.556;2022-08-19T11:01:41;22.70;99.90
51908;DHT22;39320;53.214;6.556;2022-08-19T11:04:07;22.70;99.90
51908;DHT22;39320;53.214;6.556;2022-08-19T11:06:40;22.80;99.90
51908;DHT22;39320;53.214;6.556;2022-08-19T11:09:07;22.80;99.90
51908;DHT22;39320;53.214;6.556;2022-08-19T11:11:34;22.80;99.90
51908;DHT22;39320;53.214;6.556;2022-08-19T11:14:10;22.80;99.90
51908;DHT22;39320;53.214;6.556;2022-08-19T11:16:36;22.90;99.90
51908;DHT22;39320;53.214;6.556;2022-08-19T11:19:03;22.90;99.90
51908;DHT22;39320;53.214;6.556;2022-08-19T11:21:32;23.00;99.90
51908;DHT22;39320;53.214;6.556;2022-08-19T11:24:00;23.00;99.90
51908;DHT22;39320;53.214;6.556;2022-08-19T11:26:28;23.10;99.90
51908;DHT22;39320;53.214;6.556;2022-08-19T11:28:55;23.10;99.90
51908;DHT22;39320;53.214;6.556;2022-08-19T11:31:24;23.20;99.90
51908;DHT22;39320;53.214;6.556;2022-08-19T11:33:51;23.20;99.90
51908;DHT22;39320;53.214;6.556;2022-08-19T11:36:18;23.30;99.90
51908;DHT22;39320;53.214;6.556;2022-08-19T11:38:47;23.40;99.90
51908;DHT22;39320;53.214;6.556;2022-08-19T11:41:14;23.50;99.90
51908;DHT22;39320;53.214;6.556;2022-08-19T11:43:40;23.50;99.90
51908;DHT22;39320;53.214;6.556;2022-08-19T11:46:07;23.60;99.90
51908;DHT22;39320;53.214;6.556;2022-08-19T11:48:34;23.60;99.90
51908;DHT22;39320;53.214;6.556;2022-08-19T11:51:04;23.60;99.90
51908;DHT22;39320;53.214;6.556;2022-08-19T11:53:32;23.60;99.90
51908;DHT22;39320;53.214;6.556;2022-08-19T11:55:58;23.60;99.90
51908;DHT22;39320;53.214;6.556;2022-08-19T11:58:24;23.60;99.90
51908;DHT22;39320;53.214;6.556;2022-08-19T12:00:51;23.50;99.90
51908;DHT22;39320;53.214;6.556;2022-08-19T12:03:17;23.50;99.90
51908;DHT22;39320;53.214;6.556;2022-08-19T12:05:44;23.50;99.90
51908;DHT22;39320;53.214;6.556;2022-08-19T12:08:11;23.50;99.90
51908;DHT22;39320;53.214;6.556;2022-08-19T12:10:39;23.50;99.90
51908;DHT22;39320;53.214;6.556;2022-08-19T12:13:05;23.50;99.90
51908;DHT22;39320;53.214;6.556;2022-08-19T12:15:36;23.50;99.90
51908;DHT22;39320;53.214;6.556;2022-08-19T12:18:02;23.50;99.90
51908;DHT22;39320;53.214;6.556;2022-08-19T12:20:28;23.60;99.90
51908;DHT22;39320;53.214;6.556;2022-08-19T12:22:54;23.60;99.90
51908;DHT22;39320;53.214;6.556;2022-08-19T12:25:20;23.70;99.90
51908;DHT22;39320;53.214;6.556;2022-08-19T12:27:46;23.60;99.90
51908;DHT22;39320;53.214;6.556;2022-08-19T12:30:13;23.60;99.90
51908;DHT22;39320;53.214;6.556;2022-08-19T12:32:39;23.70;99.90
51908;DHT22;39320;53.214;6.556;2022-08-19T12:35:07;23.70;99.90
51908;DHT22;39320;53.214;6.556;2022-08-19T12:37:34;23.70;99.90
51908;DHT22;39320;53.214;6.556;2022-08-19T12:40:00;23.70;99.90
51908;DHT22;39320;53.214;6.556;2022-08-19T12:42:26;23.70;99.90
51908;DHT22;39320;53.214;6.556;2022-08-19T12:44:52;23.70;99.90
51908;DHT22;39320;53.214;6.556;2022-08-19T12:47:18;23.80;99.90
51908;DHT22;39320;53.214;6.556;2022-08-19T12:49:44;23.80;99.90
51908;DHT22;39320;53.214;6.556;2022-08-19T12:52:10;23.80;99.90
51908;DHT22;39320;53.214;6.556;2022-08-19T12:54:37;23.80;99.90
51908;DHT22;39320;53.214;6.556;2022-08-19T12:57:08;23.80;99.90
51908;DHT22;39320;53.214;6.556;2022-08-19T12:59:35;23.80;99.90
51908;DHT22;39320;53.214;6.556;2022-08-19T13:02:06;23.80;99.90
51908;DHT22;39320;53.214;6.556;2022-08-19T13:04:33;23.80;99.90
51908;DHT22;39320;53.214;6.556;2022-08-19T13:07:02;23.80;99.90
51908;DHT22;39320;53.214;6.556;2022-08-19T13:09:28;23.80;99.90
51908;DHT22;39320;53.214;6.556;2022-08-19T13:11:54;23.70;99.90
51908;DHT22;39320;53.214;6.556;2022-08-19T13:14:20;23.70;99.90
51908;DHT22;39320;53.214;6.556;2022-08-19T13:16:45;23.80;99.90
51908;DHT22;39320;53.214;6.556;2022-08-19T13:19:11;23.80;99.90
51908;DHT22;39320;53.214;6.556;2022-08-19T13:21:38;23.70;99.90
51908;DHT22;39320;53.214;6.556;2022-08-19T13:24:04;23.80;99.90
51908;DHT22;39320;53.214;6.556;2022-08-19T13:26:30;23.90;99.90
51908;DHT22;39320;53.214;6.556;2022-08-19T13:28:56;24.00;99.90
51908;DHT22;39320;53.214;6.556;2022-08-19T13:31:41;24.10;99.90
51908;DHT22;39320;53.214;6.556;2022-08-19T13:34:27;24.00;99.90
51908;DHT22;39320;53.214;6.556;2022-08-19T13:36:53;24.00;99.90
51908;DHT22;39320;53.214;6.556;2022-08-19T13:39:19;24.00;99.90
51908;DHT22;39320;53.214;6.556;2022-08-19T13:41:46;23.90;99.90
51908;DHT22;39320;53.214;6.556;2022-08-19T13:44:15;23.80;99.90
51908;DHT22;39320;53.214;6.556;2022-08-19T13:46:41;23.70;99.90
51908;DHT22;39320;53.214;6.556;2022-08-19T13:49:12;23.60;99.90
51908;DHT22;39320;53.214;6.556;2022-08-19T13:51:39;23.50;99.90
51908;DHT22;39320;53.214;6.556;2022-08-19T13:54:06;23.40;99.90
51908;DHT22;39320;53.214;6.556;2022-08-19T13:56:32;23.30;99.90
51908;DHT22;39320;53.214;6.556;2022-08-19T13:58:57;23.30;99.90
51908;DHT22;39320;53.214;6.556;2022-08-19T14:01:24;23.20;99.90
51908;DHT22;39320;53.214;6.556;2022-08-19T14:03:49;23.20;99.90
51908;DHT22;39320;53.214;6.556;2022-08-19T14:06:15;23.10;99.90
51908;DHT22;39320;53.214;6.556;2022-08-19T14:08:42;23.10;99.90
51908;DHT22;39320;53.214;6.556;2022-08-19T14:11:09;23.10;99.90
51908;DHT22;39320;53.214;6.556;2022-08-19T14:13:35;23.10;99.90
51908;DHT22;39320;53.214;6.556;2022-08-19T14:16:00;23.00;99.90
51908;DHT22;39320;53.214;6.556;2022-08-19T14:18:26;23.00;99.90
51908;DHT22;39320;53.214;6.556;2022-08-19T14:20:52;23.00;99.90
51908;DHT22;39320;53.214;6.556;2022-08-19T14:23:19;23.00;99.90
51908;DHT22;39320;53.214;6.556;2022-08-19T14:25:45;23.00;99.90
51908;DHT22;39320;53.214;6.556;2022-08-19T14:28:13;23.00;99.90
51908;DHT22;39320;53.214;6.556;2022-08-19T14:30:39;23.00;99.90
51908;DHT22;39320;53.214;6.556;2022-08-19T14:33:05;23.00;99.90
51908;DHT22;39320;53.214;6.556;2022-08-19T14:35:33;23.10;99.90
51908;DHT22;39320;53.214;6.556;2022-08-19T14:38:00;23.10;99.90
51908;DHT22;39320;53.214;6.556;2022-08-19T14:40:28;23.10;99.90
51908;DHT22;39320;53.214;6.556;2022-08-19T14:42:59;23.10;99.90
51908;DHT22;39320;53.214;6.556;2022-08-19T14:45:32;23.20;99.90
51908;DHT22;39320;53.214;6.556;2022-08-19T14:47:58;23.20;99.90
51908;DHT22;39320;53.214;6.556;2022-08-19T14:50:26;23.20;99.90
51908;DHT22;39320;53.214;6.556;2022-08-19T14:53:04;23.30;99.90
51908;DHT22;39320;53.214;6.556;2022-08-19T14:55:31;23.30;99.90
51908;DHT22;39320;53.214;6.556;2022-08-19T14:57:58;23.30;99.90
51908;DHT22;39320;53.214;6.556;2022-08-19T15:00:24;23.30;99.90
51908;DHT22;39320;53.214;6.556;2022-08-19T15:02:50;23.30;99.90
51908;DHT22;39320;53.214;6.556;2022-08-19T15:05:16;23.40;99.90
51908;DHT22;39320;53.214;6.556;2022-08-19T15:07:43;23.50;99.90
51908;DHT22;39320;53.214;6.556;2022-08-19T15:10:11;23.50;99.90
51908;DHT22;39320;53.214;6.556;2022-08-19T15:12:40;23.60;99.90
51908;DHT22;39320;53.214;6.556;2022-08-19T15:15:11;23.60;99.90
51908;DHT22;39320;53.214;6.556;2022-08-19T15:17:44;23.60;99.90
51908;DHT22;39320;53.214;6.556;2022-08-19T15:20:12;23.70;99.90
51908;DHT22;39320;53.214;6.556;2022-08-19T15:22:39;23.70;99.90
51908;DHT22;39320;53.214;6.556;2022-08-19T15:25:07;23.60;99.90
51908;DHT22;39320;53.214;6.556;2022-08-19T15:27:33;23.60;99.90
51908;DHT22;39320;53.214;6.556;2022-08-19T15:29:59;23.70;99.90
51908;DHT22;39320;53.214;6.556;2022-08-19T15:32:25;23.60;99.90
51908;DHT22;39320;53.214;6.556;2022-08-19T15:34:52;23.70;99.90
51908;DHT22;39320;53.214;6.556;2022-08-19T15:37:18;23.60;99.90
51908;DHT22;39320;53.214;6.556;2022-08-19T15:39:46;23.70;99.90
51908;DHT22;39320;53.214;6.556;2022-08-19T15:42:12;23.70;99.90
51908;DHT22;39320;53.214;6.556;2022-08-19T15:44:38;23.60;99.90
51908;DHT22;39320;53.214;6.556;2022-08-19T15:47:07;23.60;99.90